sensor_id;sensor_type;location;lat;lon;timestamp;pressure;altitude;pressure_sealevel;temperature;humidity
18813;BME280;9534;51.140;6.296;2023-05-21T00:00:53;100695.78;;;13.17;100.00
18813;BME280;9534;51.140;6.296;2023-05-21T00:04:56;100690.41;;;12.98;100.00
18813;BME280;9534;51.140;6.296;2023-05-21T00:08:59;100674.97;;;12.97;100.00
18813;BME280;9534;51.140;6.296;2023-05-21T00:13:03;100683.94;;;12.86;100.00
18813;BME280;9534;51.140;6.296;2023-05-21T00:17:07;100686.13;;;12.77;100.00
18813;BME280;9534;51.140;6.296;2023-05-21T00:21:11;100688.69;;;12.79;100.00
18813;BME280;9534;51.140;6.296;2023-05-21T00:25:14;100681.53;;;12.71;100.00
18813;BME280;9534;51.140;6.296;2023-05-21T00:29:19;100689.22;;;12.63;100.00
18813;BME280;9534;51.140;6.296;2023-05-21T00:33:23;100677.44;;;12.56;100.00
18813;BME280;9534;51.140;6.296;2023-05-21T00:37:27;100684.06;;;12.42;100.00
18813;BME280;9534;51.140;6.296;2023-05-21T00:41:35;100686.91;;;12.29;100.00
18813;BME280;9534;51.140;6.296;2023-05-21T00:45:39;100684.69;;;12.44;100.00
18813;BME280;9534;51.140;6.296;2023-05-21T00:49:46;100683.44;;;12.40;100.00
18813;BME280;9534;51.140;6.296;2023-05-21T00:53:50;100678.47;;;12.31;100.00
18813;BME280;9534;51.140;6.296;2023-05-21T00:57:54;100687.34;;;12.26;100.00
18813;BME280;9534;51.140;6.296;2023-05-21T01:01:57;100683.59;;;12.21;100.00
18813;BME280;9534;51.140;6.296;2023-05-21T01:06:06;100687.16;;;12.21;100.00
18813;BME280;9534;51.140;6.296;2023-05-21T01:10:10;100685.69;;;12.19;100.00
18813;BME280;9534;51.140;6.296;2023-05-21T01:14:14;100686.97;;;12.16;100.00
18813;BME280;9534;51.140;6.296;2023-05-21T01:18:18;100684.47;;;12.08;100.00
18813;BME280;9534;51.140;6.296;2023-05-21T01:22:23;100687.41;;;12.13;100.00
18813;BME280;9534;51.140;6.296;2023-05-21T01:26:28;100670.94;;;12.13;100.00
18813;BME280;9534;51.140;6.296;2023-05-21T01:30:31;100670.94;;;12.13;100.00
18813;BME280;9534;51.140;6.296;2023-05-21T01:34:38;100675.00;;;12.04;100.00
18813;BME280;9534;51.140;6.296;2023-05-21T01:38:45;100673.94;;;12.05;100.00
18813;BME280;9534;51.140;6.296;2023-05-21T01:42:52;100672.25;;;12.04;100.00
18813;BME280;9534;51.140;6.296;2023-05-21T01:46:55;100670.56;;;12.03;100.00
18813;BME280;9534;51.140;6.296;2023-05-21T01:50:59;100676.97;;;11.97;100.00
18813;BME280;9534;51.140;6.296;2023-05-21T01:55:03;100672.69;;;12.01;100.00
18813;BME280;9534;51.140;6.296;2023-05-21T01:59:09;100671.47;;;11.97;100.00
18813;BME280;9534;51.140;6.296;2023-05-21T02:03:12;100669.78;;;11.96;100.00
18813;BME280;9534;51.140;6.296;2023-05-21T02:07:17;100666.00;;;11.97;100.00
18813;BME280;9534;51.140;6.296;2023-05-21T02:11:20;100661.91;;;12.06;100.00
18813;BME280;9534;51.140;6.296;2023-05-21T02:15:25;100665.44;;;12.13;100.00
18813;BME280;9534;51.140;6.296;2023-05-21T02:19:29;100656.34;;;12.19;100.00
18813;BME280;9534;51.140;6.296;2023-05-21T02:23:32;100656.53;;;12.24;100.00
18813;BME280;9534;51.140;6.296;2023-05-21T02:27:36;100648.09;;;12.26;100.00
18813;BME280;9534;51.140;6.296;2023-05-21T02:31:41;100635.19;;;12.26;100.00
18813;BME280;9534;51.140;6.296;2023-05-21T02:35:44;100628.38;;;12.35;100.00
18813;BME280;9534;51.140;6.296;2023-05-21T02:39:47;100620.50;;;12.45;100.00
18813;BME280;9534;51.140;6.296;2023-05-21T02:43:52;100621.31;;;12.45;100.00
18813;BME280;9534;51.140;6.296;2023-05-21T02:47:56;100616.19;;;12.55;100.00
18813;BME280;9534;51.140;6.296;2023-05-21T02:52:00;100610.03;;;12.60;100.00
18813;BME280;9534;51.140;6.296;2023-05-21T02:56:05;100611.09;;;12.59;100.00
18813;BME280;9534;51.140;6.296;2023-05-21T03:00:09;100610.06;;;12.53;100.00
18813;BME280;9534;51.140;6.296;2023-05-21T03:04:14;100607.66;;;12.63;100.00
18813;BME280;9534;51.140;6.296;2023-05-21T03:08:19;100610.66;;;12.62;100.00
18813;BME280;9534;51.140;6.296;2023-05-21T03:12:22;100609.00;;;12.54;100.00
18813;BME280;9534;51.140;6.296;2023-05-21T03:16:25;100604.31;;;12.61;100.00
18813;BME280;9534;51.140;6.296;2023-05-21T03:20:30;100597.94;;;12.67;100.00
18813;BME280;9534;51.140;6.296;2023-05-21T03:24:34;100584.03;;;12.62;100.00
18813;BME280;9534;51.140;6.296;2023-05-21T03:28:40;100594.19;;;12.62;100.00
18813;BME280;9534;51.140;6.296;2023-05-21T03:32:43;100595.25;;;12.61;100.00
18813;BME280;9534;51.140;6.296;2023-05-21T03:36:48;100602.47;;;12.55;100.00
18813;BME280;9534;51.140;6.296;2023-05-21T03:40:52;100589.63;;;12.49;100.00
18813;BME280;9534;51.140;6.296;2023-05-21T03:44:56;100597.22;;;12.54;100.00
18813;BME280;9534;51.140;6.296;2023-05-21T03:49:23;100591.75;;;12.47;100.00
18813;BME280;9534;51.140;6.296;2023-05-21T03:53:32;100588.81;;;12.49;100.00
18813;BME280;9534;51.140;6.296;2023-05-21T03:57:35;100606.94;;;12.50;100.00
18813;BME280;9534;51.140;6.296;2023-05-21T04:01:39;100606.94;;;12.50;100.00
18813;BME280;9534;51.140;6.296;2023-05-21T04:05:47;100606.94;;;12.50;100.00
18813;BME280;9534;51.140;6.296;2023-05-21T04:09:52;100609.47;;;12.51;100.00
18813;BME280;9534;51.140;6.296;2023-05-21T04:13:55;100611.09;;;12.59;100.00
18813;BME280;9534;51.140;6.296;2023-05-21T04:17:58;100630.16;;;12.54;100.00
18813;BME280;9534;51.140;6.296;2023-05-21T04:22:01;100631.56;;;12.63;100.00
18813;BME280;9534;51.140;6.296;2023-05-21T04:26:06;100624.84;;;12.59;100.00
18813;BME280;9534;51.140;6.296;2023-05-21T04:30:13;100622.25;;;12.64;100.00
18813;BME280;9534;51.140;6.296;2023-05-21T04:34:18;100625.78;;;12.71;100.00
18813;BME280;9534;51.140;6.296;2023-05-21T04:38:22;100621.91;;;12.78;100.00
18813;BME280;9534;51.140;6.296;2023-05-21T04:42:28;100624.91;;;12.77;100.00
18813;BME280;9534;51.140;6.296;2023-05-21T04:46:31;100619.94;;;12.85;100.00
18813;BME280;9534;51.140;6.296;2023-05-21T04:50:35;100609.13;;;12.90;100.00
18813;BME280;9534;51.140;6.296;2023-05-21T04:54:39;100607.38;;;12.96;100.00
18813;BME280;9534;51.140;6.296;2023-05-21T04:58:44;100609.44;;;13.00;100.00
18813;BME280;9534;51.140;6.296;2023-05-21T05:02:48;100612.72;;;13.15;100.00
18813;BME280;9534;51.140;6.296;2023-05-21T05:06:51;100621.88;;;13.27;100.00
18813;BME280;9534;51.140;6.296;2023-05-21T05:10:55;100617.22;;;13.28;100.00
18813;BME280;9534;51.140;6.296;2023-05-21T05:14:59;100609.59;;;13.30;100.00
18813;BME280;9534;51.140;6.296;2023-05-21T05:19:03;100604.53;;;13.27;100.00
18813;BME280;9534;51.140;6.296;2023-05-21T05:23:06;100602.72;;;13.39;100.00
18813;BME280;9534;51.140;6.296;2023-05-21T05:27:09;100593.25;;;13.35;100.00
18813;BME280;9534;51.140;6.296;2023-05-21T05:31:14;100593.16;;;13.41;100.00
18813;BME280;9534;51.140;6.296;2023-05-21T05:35:18;100595.25;;;13.46;100.00
18813;BME280;9534;51.140;6.296;2023-05-21T05:39:21;100584.38;;;13.51;100.00
18813;BME280;9534;51.140;6.296;2023-05-21T05:43:25;100590.81;;;13.62;100.00
18813;BME280;9534;51.140;6.296;2023-05-21T05:47:30;100584.38;;;13.68;100.00
18813;BME280;9534;51.140;6.296;2023-05-21T05:51:34;100579.28;;;13.83;100.00
18813;BME280;9534;51.140;6.296;2023-05-21T05:55:38;100577.41;;;13.95;100.00
18813;BME280;9534;51.140;6.296;2023-05-21T05:59:41;100584.75;;;14.01;100.00
18813;BME280;9534;51.140;6.296;2023-05-21T06:03:47;100570.47;;;14.22;100.00
18813;BME280;9534;51.140;6.296;2023-05-21T06:07:51;100573.69;;;14.19;100.00
18813;BME280;9534;51.140;6.296;2023-05-21T06:11:54;100580.00;;;14.20;100.00
18813;BME280;9534;51.140;6.296;2023-05-21T06:15:57;100586.22;;;14.33;100.00
18813;BME280;9534;51.140;6.296;2023-05-21T06:20:03;100607.03;;;14.29;100.00
18813;BME280;9534;51.140;6.296;2023-05-21T06:24:06;100606.97;;;14.47;100.00
18813;BME280;9534;51.140;6.296;2023-05-21T06:28:10;100602.66;;;14.51;100.00
18813;BME280;9534;51.140;6.296;2023-05-21T06:32:13;100592.72;;;14.73;100.00
18813;BME280;9534;51.140;6.296;2023-05-21T06:36:18;100598.09;;;14.68;100.00
18813;BME280;9534;51.140;6.296;2023-05-21T06:40:23;100590.34;;;14.88;100.00
18813;BME280;9534;51.140;6.296;2023-05-21T06:44:29;100587.56;;;14.99;100.00
18813;BME280;9534;51.140;6.296;2023-05-21T06:48:42;100600.75;;;15.20;100.00
18813;BME280;9534;51.140;6.296;2023-05-21T06:52:49;100600.75;;;15.32;100.00
18813;BME280;9534;51.140;6.296;2023-05-21T06:56:53;100596.00;;;15.39;100.00
18813;BME280;9534;51.140;6.296;2023-05-21T07:00:58;100610.41;;;15.69;100.00
18813;BME280;9534;51.140;6.296;2023-05-21T07:05:01;100605.13;;;15.79;100.00
18813;BME280;9534;51.140;6.296;2023-05-21T07:09:06;100608.53;;;15.58;100.00
18813;BME280;9534;51.140;6.296;2023-05-21T07:13:11;100600.78;;;15.83;100.00
18813;BME280;9534;51.140;6.296;2023-05-21T07:17:14;100601.19;;;16.03;100.00
18813;BME280;9534;51.140;6.296;2023-05-21T07:21:17;100600.38;;;16.46;100.00
18813;BME280;9534;51.140;6.296;2023-05-21T07:25:24;100601.75;;;16.32;100.00
18813;BME280;9534;51.140;6.296;2023-05-21T07:29:27;100595.47;;;15.93;100.00
18813;BME280;9534;51.140;6.296;2023-05-21T07:33:30;100608.88;;;16.01;100.00
18813;BME280;9534;51.140;6.296;2023-05-21T07:37:33;100592.88;;;16.30;100.00
18813;BME280;9534;51.140;6.296;2023-05-21T07:41:38;100612.28;;;16.19;100.00
18813;BME280;9534;51.140;6.296;2023-05-21T07:45:44;100597.56;;;16.30;100.00
18813;BME280;9534;51.140;6.296;2023-05-21T07:49:47;100610.72;;;16.84;100.00
18813;BME280;9534;51.140;6.296;2023-05-21T07:53:50;100604.03;;;16.96;100.00
18813;BME280;9534;51.140;6.296;2023-05-21T07:58:06;100596.00;;;16.62;100.00
18813;BME280;9534;51.140;6.296;2023-05-21T08:02:09;100590.28;;;16.85;100.00
18813;BME280;9534;51.140;6.296;2023-05-21T08:06:13;100592.63;;;16.76;100.00
18813;BME280;9534;51.140;6.296;2023-05-21T08:10:16;100590.09;;;17.08;100.00
18813;BME280;9534;51.140;6.296;2023-05-21T08:14:23;100589.91;;;17.14;100.00
18813;BME280;9534;51.140;6.296;2023-05-21T08:18:27;100588.19;;;17.46;100.00
18813;BME280;9534;51.140;6.296;2023-05-21T08:22:31;100593.25;;;17.16;100.00
18813;BME280;9534;51.140;6.296;2023-05-21T08:26:34;100594.91;;;17.33;100.00
18813;BME280;9534;51.140;6.296;2023-05-21T08:30:38;100592.97;;;16.96;100.00
18813;BME280;9534;51.140;6.296;2023-05-21T08:34:42;100585.59;;;16.85;100.00
18813;BME280;9534;51.140;6.296;2023-05-21T08:39:03;100584.50;;;16.86;100.00
18813;BME280;9534;51.140;6.296;2023-05-21T08:43:09;100598.94;;;17.26;100.00
18813;BME280;9534;51.140;6.296;2023-05-21T08:47:20;100583.16;;;16.89;100.00
18813;BME280;9534;51.140;6.296;2023-05-21T08:51:25;100589.03;;;17.30;100.00
18813;BME280;9534;51.140;6.296;2023-05-21T08:55:29;100600.75;;;17.37;100.00
18813;BME280;9534;51.140;6.296;2023-05-21T08:59:33;100588.88;;;17.20;100.00
18813;BME280;9534;51.140;6.296;2023-05-21T09:03:47;100593.81;;;17.34;100.00
18813;BME280;9534;51.140;6.296;2023-05-21T09:07:54;100592.66;;;18.38;100.00
18813;BME280;9534;51.140;6.296;2023-05-21T09:12:11;100595.16;;;17.70;100.00
18813;BME280;9534;51.140;6.296;2023-05-21T09:16:15;100596.53;;;18.37;100.00
18813;BME280;9534;51.140;6.296;2023-05-21T09:20:22;100588.13;;;18.58;100.00
18813;BME280;9534;51.140;6.296;2023-05-21T09:24:32;100590.59;;;19.64;100.00
18813;BME280;9534;51.140;6.296;2023-05-21T09:28:38;100586.03;;;19.06;100.00
18813;BME280;9534;51.140;6.296;2023-05-21T09:32:44;100584.44;;;19.15;100.00
18813;BME280;9534;51.140;6.296;2023-05-21T09:36:50;100578.59;;;18.75;100.00
18813;BME280;9534;51.140;6.296;2023-05-21T09:40:55;100598.81;;;18.45;100.00
18813;BME280;9534;51.140;6.296;2023-05-21T09:45:00;100586.34;;;18.73;100.00
18813;BME280;9534;51.140;6.296;2023-05-21T09:49:06;100586.34;;;18.73;100.00
18813;BME280;9534;51.140;6.296;2023-05-21T09:53:11;100585.03;;;19.64;100.00
18813;BME280;9534;51.140;6.296;2023-05-21T09:57:15;100582.06;;;19.80;100.00
18813;BME280;9534;51.140;6.296;2023-05-21T10:01:19;100584.31;;;19.88;100.00
18813;BME280;9534;51.140;6.296;2023-05-21T10:05:25;100569.41;;;20.09;100.00
18813;BME280;9534;51.140;6.296;2023-05-21T10:09:30;100567.84;;;20.48;100.00
18813;BME280;9534;51.140;6.296;2023-05-21T10:13:34;100561.19;;;21.04;100.00
18813;BME280;9534;51.140;6.296;2023-05-21T10:17:39;100561.75;;;20.91;100.00
18813;BME280;9534;51.140;6.296;2023-05-21T10:21:43;100552.00;;;20.93;100.00
18813;BME280;9534;51.140;6.296;2023-05-21T10:25:49;100549.59;;;22.66;100.00
18813;BME280;9534;51.140;6.296;2023-05-21T10:29:52;100556.56;;;21.62;100.00
18813;BME280;9534;51.140;6.296;2023-05-21T10:33:56;100556.41;;;21.14;100.00
18813;BME280;9534;51.140;6.296;2023-05-21T10:37:59;100536.41;;;21.02;100.00
18813;BME280;9534;51.140;6.296;2023-05-21T10:42:08;100531.97;;;22.33;100.00
18813;BME280;9534;51.140;6.296;2023-05-21T10:46:27;100537.56;;;22.71;100.00
18813;BME280;9534;51.140;6.296;2023-05-21T10:50:39;100532.13;;;21.44;100.00
18813;BME280;9534;51.140;6.296;2023-05-21T10:55:06;100530.41;;;22.60;100.00
18813;BME280;9534;51.140;6.296;2023-05-21T10:59:16;100520.47;;;22.39;100.00
18813;BME280;9534;51.140;6.296;2023-05-21T11:03:25;100521.97;;;21.83;100.00
18813;BME280;9534;51.140;6.296;2023-05-21T11:11:52;100524.03;;;22.54;100.00
18813;BME280;9534;51.140;6.296;2023-05-21T11:16:08;100521.34;;;21.96;100.00
18813;BME280;9534;51.140;6.296;2023-05-21T11:20:16;100522.28;;;22.20;100.00
18813;BME280;9534;51.140;6.296;2023-05-21T11:24:22;100502.00;;;23.10;100.00
18813;BME280;9534;51.140;6.296;2023-05-21T11:28:31;100498.91;;;22.59;100.00
18813;BME280;9534;51.140;6.296;2023-05-21T11:32:39;100499.00;;;23.06;100.00
18813;BME280;9534;51.140;6.296;2023-05-21T11:37:22;100485.38;;;22.71;100.00
18813;BME280;9534;51.140;6.296;2023-05-21T11:41:27;100486.16;;;22.48;100.00
18813;BME280;9534;51.140;6.296;2023-05-21T11:45:31;100485.31;;;22.48;100.00
18813;BME280;9534;51.140;6.296;2023-05-21T11:49:36;100489.84;;;23.01;100.00
18813;BME280;9534;51.140;6.296;2023-05-21T11:53:40;100483.09;;;21.43;100.00
18813;BME280;9534;51.140;6.296;2023-05-21T11:57:45;100477.03;;;22.33;100.00
18813;BME280;9534;51.140;6.296;2023-05-21T12:01:49;100479.47;;;24.13;100.00
18813;BME280;9534;51.140;6.296;2023-05-21T12:05:53;100482.03;;;23.50;100.00
18813;BME280;9534;51.140;6.296;2023-05-21T12:09:59;100476.00;;;23.61;100.00
18813;BME280;9534;51.140;6.296;2023-05-21T12:14:02;100473.66;;;23.26;100.00
18813;BME280;9534;51.140;6.296;2023-05-21T12:18:08;100464.41;;;23.02;100.00
18813;BME280;9534;51.140;6.296;2023-05-21T12:22:14;100468.47;;;23.62;100.00
18813;BME280;9534;51.140;6.296;2023-05-21T12:26:22;100470.09;;;23.86;100.00
18813;BME280;9534;51.140;6.296;2023-05-21T12:31:05;100469.31;;;24.54;100.00
18813;BME280;9534;51.140;6.296;2023-05-21T12:35:22;100473.91;;;24.96;100.00
18813;BME280;9534;51.140;6.296;2023-05-21T12:39:29;100470.78;;;24.97;100.00
18813;BME280;9534;51.140;6.296;2023-05-21T12:43:33;100469.97;;;24.97;100.00
18813;BME280;9534;51.140;6.296;2023-05-21T12:47:36;100457.44;;;24.12;100.00
18813;BME280;9534;51.140;6.296;2023-05-21T12:51:40;100483.13;;;25.95;100.00
18813;BME280;9534;51.140;6.296;2023-05-21T12:55:45;100479.97;;;25.97;100.00
18813;BME280;9534;51.140;6.296;2023-05-21T12:59:49;100467.63;;;25.71;100.00
18813;BME280;9534;51.140;6.296;2023-05-21T13:04:06;100478.13;;;25.92;100.00
18813;BME280;9534;51.140;6.296;2023-05-21T13:08:16;100477.94;;;26.46;100.00
18813;BME280;9534;51.140;6.296;2023-05-21T13:12:34;100475.72;;;26.34;100.00
18813;BME280;9534;51.140;6.296;2023-05-21T13:16:37;100464.38;;;26.04;100.00
18813;BME280;9534;51.140;6.296;2023-05-21T13:20:41;100468.94;;;25.19;100.00
18813;BME280;9534;51.140;6.296;2023-05-21T13:24:47;100461.06;;;26.59;100.00
18813;BME280;9534;51.140;6.296;2023-05-21T13:28:52;100457.59;;;26.84;100.00
18813;BME280;9534;51.140;6.296;2023-05-21T13:32:55;100469.22;;;26.12;100.00
18813;BME280;9534;51.140;6.296;2023-05-21T13:36:59;100467.72;;;26.94;100.00
18813;BME280;9534;51.140;6.296;2023-05-21T13:41:03;100469.84;;;27.49;100.00
18813;BME280;9534;51.140;6.296;2023-05-21T13:45:08;100461.19;;;27.37;100.00
18813;BME280;9534;51.140;6.296;2023-05-21T13:49:12;100470.09;;;27.22;100.00
18813;BME280;9534;51.140;6.296;2023-05-21T13:53:15;100467.66;;;25.44;100.00
18813;BME280;9534;51.140;6.296;2023-05-21T13:57:19;100467.09;;;25.82;100.00
18813;BME280;9534;51.140;6.296;2023-05-21T14:01:24;100462.44;;;25.78;100.00
18813;BME280;9534;51.140;6.296;2023-05-21T14:05:28;100463.59;;;26.91;100.00
18813;BME280;9534;51.140;6.296;2023-05-21T14:09:31;100447.97;;;25.98;100.00
18813;BME280;9534;51.140;6.296;2023-05-21T14:13:34;100448.19;;;26.89;100.00
18813;BME280;9534;51.140;6.296;2023-05-21T14:17:39;100445.88;;;26.60;100.00
18813;BME280;9534;51.140;6.296;2023-05-21T14:21:43;100445.84;;;26.17;100.00
18813;BME280;9534;51.140;6.296;2023-05-21T14:25:46;100442.47;;;26.28;100.00
18813;BME280;9534;51.140;6.296;2023-05-21T14:29:50;100435.59;;;27.08;100.00
18813;BME280;9534;51.140;6.296;2023-05-21T14:33:54;100433.38;;;26.44;100.00
18813;BME280;9534;51.140;6.296;2023-05-21T14:37:57;100428.09;;;25.59;100.00
18813;BME280;9534;51.140;6.296;2023-05-21T14:42:01;100418.38;;;25.43;100.00
18813;BME280;9534;51.140;6.296;2023-05-21T14:46:04;100418.63;;;27.69;100.00
18813;BME280;9534;51.140;6.296;2023-05-21T14:50:09;100416.25;;;26.76;100.00
18813;BME280;9534;51.140;6.296;2023-05-21T14:54:13;100419.69;;;26.08;100.00
18813;BME280;9534;51.140;6.296;2023-05-21T14:58:16;100417.22;;;27.02;100.00
18813;BME280;9534;51.140;6.296;2023-05-21T15:02:22;100408.66;;;27.16;100.00
18813;BME280;9534;51.140;6.296;2023-05-21T15:06:27;100416.69;;;27.78;100.00
18813;BME280;9534;51.140;6.296;2023-05-21T15:10:33;100411.53;;;28.82;100.00
18813;BME280;9534;51.140;6.296;2023-05-21T15:14:36;100409.47;;;27.47;100.00
18813;BME280;9534;51.140;6.296;2023-05-21T15:18:40;100399.03;;;27.47;100.00
18813;BME280;9534;51.140;6.296;2023-05-21T15:22:44;100405.78;;;26.03;100.00
18813;BME280;9534;51.140;6.296;2023-05-21T15:26:47;100398.72;;;25.56;100.00
18813;BME280;9534;51.140;6.296;2023-05-21T15:30:51;100401.34;;;25.53;100.00
18813;BME280;9534;51.140;6.296;2023-05-21T15:34:54;100384.44;;;25.80;100.00
18813;BME280;9534;51.140;6.296;2023-05-21T15:38:59;100397.03;;;24.88;100.00
18813;BME280;9534;51.140;6.296;2023-05-21T15:43:04;100381.94;;;24.57;100.00
18813;BME280;9534;51.140;6.296;2023-05-21T15:47:08;100389.69;;;24.92;100.00
18813;BME280;9534;51.140;6.296;2023-05-21T15:51:11;100396.34;;;25.09;100.00
18813;BME280;9534;51.140;6.296;2023-05-21T15:55:16;100391.00;;;25.75;100.00
18813;BME280;9534;51.140;6.296;2023-05-21T15:59:20;100385.63;;;25.65;100.00
18813;BME280;9534;51.140;6.296;2023-05-21T16:03:25;100394.06;;;26.01;100.00
18813;BME280;9534;51.140;6.296;2023-05-21T16:07:29;100390.69;;;26.34;100.00
18813;BME280;9534;51.140;6.296;2023-05-21T16:11:34;100395.63;;;25.80;100.00
18813;BME280;9534;51.140;6.296;2023-05-21T16:15:37;100387.66;;;26.52;100.00
18813;BME280;9534;51.140;6.296;2023-05-21T16:19:41;100394.38;;;25.10;100.00
18813;BME280;9534;51.140;6.296;2023-05-21T16:23:44;100388.56;;;25.47;100.00
18813;BME280;9534;51.140;6.296;2023-05-21T16:27:49;100395.84;;;25.97;100.00
18813;BME280;9534;51.140;6.296;2023-05-21T16:31:52;100389.72;;;25.05;100.00
18813;BME280;9534;51.140;6.296;2023-05-21T16:35:56;100370.41;;;24.13;100.00
18813;BME280;9534;51.140;6.296;2023-05-21T16:39:59;100380.94;;;24.35;100.00
18813;BME280;9534;51.140;6.296;2023-05-21T16:44:05;100384.59;;;24.35;100.00
18813;BME280;9534;51.140;6.296;2023-05-21T16:48:10;100379.28;;;24.34;100.00
18813;BME280;9534;51.140;6.296;2023-05-21T16:52:13;100381.03;;;23.79;100.00
18813;BME280;9534;51.140;6.296;2023-05-21T16:56:17;100373.53;;;23.93;100.00
18813;BME280;9534;51.140;6.296;2023-05-21T17:00:22;100378.28;;;24.11;100.00
18813;BME280;9534;51.140;6.296;2023-05-21T17:04:25;100384.84;;;24.20;100.00
18813;BME280;9534;51.140;6.296;2023-05-21T17:08:28;100379.97;;;23.75;100.00
18813;BME280;9534;51.140;6.296;2023-05-21T17:12:32;100376.56;;;23.78;100.00
18813;BME280;9534;51.140;6.296;2023-05-21T17:16:36;100379.31;;;24.79;100.00
18813;BME280;9534;51.140;6.296;2023-05-21T17:20:43;100398.00;;;25.51;100.00
18813;BME280;9534;51.140;6.296;2023-05-21T17:24:46;100395.53;;;25.36;100.00
18813;BME280;9534;51.140;6.296;2023-05-21T17:28:50;100394.22;;;24.61;100.00
18813;BME280;9534;51.140;6.296;2023-05-21T17:32:54;100384.22;;;24.55;100.00
18813;BME280;9534;51.140;6.296;2023-05-21T17:36:59;100385.28;;;24.27;100.00
18813;BME280;9534;51.140;6.296;2023-05-21T17:41:03;100388.72;;;23.87;100.00
18813;BME280;9534;51.140;6.296;2023-05-21T17:45:06;100394.00;;;23.71;100.00
18813;BME280;9534;51.140;6.296;2023-05-21T17:49:11;100390.84;;;23.59;100.00
18813;BME280;9534;51.140;6.296;2023-05-21T17:53:14;100403.97;;;24.13;100.00
18813;BME280;9534;51.140;6.296;2023-05-21T17:57:18;100397.78;;;24.16;100.00
18813;BME280;9534;51.140;6.296;2023-05-21T18:01:22;100397.13;;;23.87;100.00
18813;BME280;9534;51.140;6.296;2023-05-21T18:05:27;100398.00;;;23.83;100.00
18813;BME280;9534;51.140;6.296;2023-05-21T18:09:30;100398.28;;;23.45;100.00
18813;BME280;9534;51.140;6.296;2023-05-21T18:13:33;100394.69;;;22.97;100.00
18813;BME280;9534;51.140;6.296;2023-05-21T18:17:37;100408.59;;;23.26;100.00
18813;BME280;9534;51.140;6.296;2023-05-21T18:21:41;100404.75;;;23.17;100.00
18813;BME280;9534;51.140;6.296;2023-05-21T18:25:44;100401.59;;;23.05;100.00
18813;BME280;9534;51.140;6.296;2023-05-21T18:29:47;100403.47;;;22.86;100.00
18813;BME280;9534;51.140;6.296;2023-05-21T18:33:50;100405.53;;;22.75;100.00
18813;BME280;9534;51.140;6.296;2023-05-21T18:37:56;100392.41;;;22.76;100.00
18813;BME280;9534;51.140;6.296;2023-05-21T18:41:59;100394.25;;;22.85;100.00
18813;BME280;9534;51.140;6.296;2023-05-21T18:46:14;100388.97;;;22.60;100.00
18813;BME280;9534;51.140;6.296;2023-05-21T18:50:18;100389.22;;;22.87;100.00
18813;BME280;9534;51.140;6.296;2023-05-21T18:54:22;100396.94;;;22.72;100.00
18813;BME280;9534;51.140;6.296;2023-05-21T18:58:27;100400.50;;;22.49;100.00
18813;BME280;9534;51.140;6.296;2023-05-21T19:02:31;100395.53;;;22.41;100.00
18813;BME280;9534;51.140;6.296;2023-05-21T19:06:34;100389.06;;;22.17;100.00
18813;BME280;9534;51.140;6.296;2023-05-21T19:10:40;100400.53;;;22.11;100.00
18813;BME280;9534;51.140;6.296;2023-05-21T19:14:43;100407.03;;;22.01;100.00
18813;BME280;9534;51.140;6.296;2023-05-21T19:18:47;100406.09;;;21.77;100.00
18813;BME280;9534;51.140;6.296;2023-05-21T19:22:50;100409.22;;;21.66;100.00
18813;BME280;9534;51.140;6.296;2023-05-21T19:26:55;100405.59;;;21.60;100.00
18813;BME280;9534;51.140;6.296;2023-05-21T19:30:58;100404.53;;;21.51;100.00
18813;BME280;9534;51.140;6.296;2023-05-21T19:35:02;100401.25;;;21.39;100.00
18813;BME280;9534;51.140;6.296;2023-05-21T19:39:06;100409.66;;;21.34;100.00
18813;BME280;9534;51.140;6.296;2023-05-21T19:43:11;100406.06;;;21.29;100.00
18813;BME280;9534;51.140;6.296;2023-05-21T19:47:15;100400.50;;;21.24;100.00
18813;BME280;9534;51.140;6.296;2023-05-21T19:51:19;100400.56;;;21.14;100.00
18813;BME280;9534;51.140;6.296;2023-05-21T19:55:22;100414.81;;;20.98;100.00
18813;BME280;9534;51.140;6.296;2023-05-21T19:59:27;100412.59;;;20.85;100.00
18813;BME280;9534;51.140;6.296;2023-05-21T20:03:30;100410.38;;;20.82;100.00
18813;BME280;9534;51.140;6.296;2023-05-21T20:07:36;100407.03;;;20.80;100.00
18813;BME280;9534;51.140;6.296;2023-05-21T20:11:40;100402.06;;;20.62;100.00
18813;BME280;9534;51.140;6.296;2023-05-21T20:15:45;100406.84;;;20.51;100.00
18813;BME280;9534;51.140;6.296;2023-05-21T20:19:48;100397.69;;;20.41;100.00
18813;BME280;9534;51.140;6.296;2023-05-21T20:23:53;100397.41;;;20.27;100.00
18813;BME280;9534;51.140;6.296;2023-05-21T20:27:56;100406.03;;;20.21;100.00
18813;BME280;9534;51.140;6.296;2023-05-21T20:32:03;100401.03;;;20.18;100.00
18813;BME280;9534;51.140;6.296;2023-05-21T20:36:07;100400.44;;;20.01;100.00
18813;BME280;9534;51.140;6.296;2023-05-21T20:40:10;100413.75;;;19.94;100.00
18813;BME280;9534;51.140;6.296;2023-05-21T20:44:16;100417.66;;;19.88;100.00
18813;BME280;9534;51.140;6.296;2023-05-21T20:48:20;100415.41;;;19.80;100.00
18813;BME280;9534;51.140;6.296;2023-05-21T20:52:24;100412.06;;;19.63;100.00
18813;BME280;9534;51.140;6.296;2023-05-21T20:56:28;100414.81;;;19.53;100.00
18813;BME280;9534;51.140;6.296;2023-05-21T21:00:43;100423.38;;;19.47;100.00
18813;BME280;9534;51.140;6.296;2023-05-21T21:04:49;100423.34;;;19.37;100.00
18813;BME280;9534;51.140;6.296;2023-05-21T21:08:52;100424.75;;;19.34;100.00
18813;BME280;9534;51.140;6.296;2023-05-21T21:12:56;100434.69;;;19.25;100.00
18813;BME280;9534;51.140;6.296;2023-05-21T21:16:59;100430.47;;;19.23;100.00
18813;BME280;9534;51.140;6.296;2023-05-21T21:21:04;100432.13;;;19.14;100.00
18813;BME280;9534;51.140;6.296;2023-05-21T21:25:08;100433.97;;;18.98;100.00